Kelso, WA (98626)

6:08 PM PST on February 13, 2016 (GMT -0800)
Kelso | | Change Station
CLOSE
Current Station
Personal Weather Station
Location: Kelso, WA
Elevation: 23 ft
Nearby Weather Stations

Elev 23 ft 46.16 °N, 122.91 °W | Updated 3 seconds ago

Rain
Rain
46.9 °F
Feels Like 47 °F
N
2.2
Wind Variable Wind from East
Gusts 6.3 mph

Today
High -- | Low -- °F
--% Chance of Precip.
Yesterday
High -- | Low -- °F
Precip. -- in
Pressure 30.19 in
Visibility 10.0 miles
Clouds Mostly Cloudy 1800 ft
Overcast 2600 ft
Windchill 47 °F
Dew Point 45 °F
Humidity 93%
Rainfall 0.46 in
Snow Depth Not available.
7:18 AM 5:34 PM
Waxing Crescent, 36% visible
METAR KKLS 140155Z AUTO 16007KT 10SM BKN018 OVC026 09/06 A3019 RMK AO1
Pressure 30.19 in
Visibility 10.0 miles
Clouds Mostly Cloudy 1800 ft
Overcast 2600 ft
Windchill 47 °F
Dew Point 45 °F
Humidity 93%
Rainfall 0.46 in
Snow Depth Not available.
7:18 AM 5:34 PM
Waxing Crescent, 36% visible
METAR KKLS 140155Z AUTO 16007KT 10SM BKN018 OVC026 09/06 A3019 RMK AO1

10-Day Weather Forecast

Almanac

Astronomy

Feb. 13, 2016 Rise Set
Actual Time
Civil Twilight
Nautical Twilight
Astronomical Twilight
Moon
Length of Visible Light
Length of Day
Tomorrow will be .
, % of the Moon is Illuminated

Today's Extremes

State Highs State Lows

Community

WunderPhotos

Upload Photos

1,892,725 photos uploaded!

WunderBlog® & News

Nearby

Air Quality

  Air Quality AQ Index Pollutant
Not available.

Snow Depth

Station Depth Elevation

Earthquake Activity

City Distance Mag. Time & Date
Minimum magnitude displayed is 2.5.

Coastal Water Temperatures

Place Temperature

Stations

Nearby Weather Stations

Station Location Temp. Windchill Dew Point Humidity Wind Precip. Elev Updated Type
                   

Watches & Warnings

There are currently no watches in effect.